createdAt,value
2019-02-14T00:00:49.822Z,93.94
2019-02-14T00:01:49.999Z,94.04
2019-02-14T00:02:50.193Z,94.42
2019-02-14T00:03:52.971Z,94.51
2019-02-14T00:04:50.474Z,94.13
2019-02-14T00:05:50.659Z,94.70
2019-02-14T00:06:50.867Z,93.65
2019-02-14T00:07:50.966Z,93.75
2019-02-14T00:08:51.162Z,94.32
2019-02-14T00:09:51.378Z,94.51
2019-02-14T00:10:51.564Z,94.32
2019-02-14T00:11:51.779Z,94.60
2019-02-14T00:12:51.977Z,94.13
2019-02-14T00:13:56.637Z,94.13
2019-02-14T00:14:52.308Z,94.13
2019-02-14T00:15:52.496Z,93.84
2019-02-14T00:16:52.615Z,93.65
2019-02-14T00:17:52.698Z,93.75
2019-02-14T00:18:52.903Z,93.94
2019-02-14T00:19:53.097Z,94.13
2019-02-14T00:20:53.285Z,94.42
2019-02-14T00:21:53.510Z,94.79
2019-02-14T00:22:53.724Z,94.70
2019-02-14T00:23:53.821Z,94.51
2019-02-14T00:24:54.013Z,94.51
2019-02-14T00:25:54.185Z,94.51
2019-02-14T00:26:54.395Z,94.89
2019-02-14T00:27:54.596Z,94.32
2019-02-14T00:28:54.782Z,94.60
2019-02-14T00:29:54.972Z,94.60
2019-02-14T00:30:55.154Z,94.70
2019-02-14T00:31:55.355Z,94.70
2019-02-14T00:32:55.549Z,94.98
2019-02-14T00:33:55.760Z,94.70
2019-02-14T00:34:55.946Z,94.79
2019-02-14T00:35:56.127Z,94.89
2019-02-14T00:36:56.329Z,94.60
2019-02-14T00:37:56.531Z,94.42
2019-02-14T00:38:56.742Z,94.60
2019-02-14T00:39:56.933Z,94.70
2019-02-14T00:40:57.130Z,94.23
2019-02-14T00:41:57.332Z,94.13
2019-02-14T00:42:57.535Z,94.42
2019-02-14T00:43:57.715Z,94.32
2019-02-14T00:44:57.893Z,94.32
2019-02-14T00:45:58.089Z,94.13
2019-02-14T00:46:58.298Z,94.32
2019-02-14T00:47:58.493Z,94.13
2019-02-14T00:48:58.695Z,94.13
2019-02-14T00:49:58.905Z,94.13
2019-02-14T00:50:58.992Z,94.42
2019-02-14T00:51:59.208Z,93.65
2019-02-14T00:52:59.405Z,93.08
2019-02-14T00:53:59.615Z,93.37
2019-02-14T00:54:59.684Z,93.56
2019-02-14T00:55:59.931Z,94.23
2019-02-14T00:56:59.989Z,94.70
2019-02-14T00:58:00.201Z,94.46
2019-02-14T00:59:00.305Z,94.32
2019-02-14T01:00:00.522Z,94.56
2019-02-14T01:01:00.725Z,94.46
2019-02-14T01:02:00.900Z,94.27
2019-02-14T01:03:01.082Z,94.60
2019-02-14T01:04:01.260Z,94.42
2019-02-14T01:05:01.489Z,95.36
2019-02-14T01:06:01.668Z,94.27
2019-02-14T01:07:01.854Z,94.46
2019-02-14T01:08:02.064Z,94.32
2019-02-14T01:09:02.247Z,94.51
2019-02-14T01:10:02.464Z,94.42
2019-02-14T01:11:02.522Z,94.89
2019-02-14T01:12:02.700Z,94.13
2019-02-14T01:13:02.914Z,94.42
2019-02-14T01:14:03.097Z,94.23
2019-02-14T01:15:03.312Z,94.32
2019-02-14T01:16:03.487Z,94.04
2019-02-14T01:17:03.671Z,94.13
2019-02-14T01:18:03.878Z,94.56
2019-02-14T01:19:04.051Z,94.37
2019-02-14T01:20:04.283Z,94.51
2019-02-14T01:21:04.348Z,94.32
2019-02-14T01:22:04.536Z,94.42
2019-02-14T01:23:04.867Z,94.42
2019-02-14T01:24:04.932Z,95.31
2019-02-14T01:25:05.116Z,94.60
2019-02-14T01:26:05.303Z,94.70
2019-02-14T01:27:05.516Z,94.79
2019-02-14T01:28:05.718Z,94.70
2019-02-14T01:29:05.920Z,94.60
2019-02-14T01:30:06.100Z,94.89
2019-02-14T01:31:06.303Z,94.74
2019-02-14T01:32:06.378Z,94.60
2019-02-14T01:33:06.572Z,94.70
2019-02-14T01:34:06.803Z,95.03
2019-02-14T01:35:06.933Z,95.07
2019-02-14T01:36:07.070Z,94.51
2019-02-14T01:37:07.299Z,94.56
2019-02-14T01:38:07.510Z,94.74
2019-02-14T01:39:07.695Z,94.93
2019-02-14T01:40:07.874Z,95.36
2019-02-14T01:41:08.088Z,95.12
2019-02-14T01:42:08.297Z,94.93
2019-02-14T01:43:08.495Z,94.84
2019-02-14T01:44:08.683Z,94.65
2019-02-14T01:45:13.513Z,94.93
2019-02-14T01:46:13.916Z,94.74
2019-02-14T01:47:11.652Z,94.93
2019-02-14T01:48:13.155Z,94.74
2019-02-14T01:49:10.712Z,94.51
2019-02-14T01:50:11.349Z,94.74
2019-02-14T01:51:11.079Z,94.56
2019-02-14T01:52:10.867Z,94.65
2019-02-14T01:53:10.156Z,94.27
2019-02-14T01:54:10.588Z,94.27
2019-02-14T01:55:10.380Z,94.84
2019-02-14T01:56:10.491Z,94.08
2019-02-14T01:57:12.688Z,94.65
2019-02-14T01:58:11.796Z,94.65
2019-02-14T01:59:11.508Z,94.56
2019-02-14T02:00:11.046Z,94.27
2019-02-14T02:01:11.197Z,94.46
2019-02-14T02:02:11.689Z,94.65
2019-02-14T02:03:12.267Z,94.79
2019-02-14T02:04:11.790Z,94.65
2019-02-14T02:05:11.759Z,94.37
2019-02-14T02:06:13.059Z,94.56
2019-02-14T02:07:12.409Z,94.51
2019-02-14T02:08:12.637Z,94.46
2019-02-14T02:09:12.481Z,94.65
2019-02-14T02:10:12.603Z,94.84
2019-02-14T02:11:12.658Z,94.65
2019-02-14T02:12:12.863Z,95.12
2019-02-14T02:13:13.063Z,94.27
2019-02-14T02:14:13.257Z,94.37
2019-02-14T02:15:13.432Z,94.46
2019-02-14T02:16:13.675Z,94.65
2019-02-14T02:17:13.769Z,94.37
2019-02-14T02:18:13.827Z,94.56
2019-02-14T02:19:14.021Z,94.46
2019-02-14T02:20:14.199Z,94.65
2019-02-14T02:21:14.379Z,94.46
2019-02-14T02:22:14.580Z,94.46
2019-02-14T02:23:14.812Z,94.56
2019-02-14T02:24:14.878Z,94.65
2019-02-14T02:25:15.062Z,94.56
2019-02-14T02:26:15.264Z,94.65
2019-02-14T02:27:15.473Z,94.84
2019-02-14T02:28:15.644Z,94.37
2019-02-14T02:29:15.841Z,94.46
2019-02-14T02:30:16.042Z,94.46
2019-02-14T02:31:16.215Z,94.46
2019-02-14T02:32:16.389Z,94.37
2019-02-14T02:33:16.597Z,94.56
2019-02-14T02:34:16.681Z,94.46
2019-02-14T02:35:16.874Z,94.56
2019-02-14T02:36:17.110Z,94.56
2019-02-14T02:37:17.165Z,94.46
2019-02-14T02:38:17.351Z,94.65
2019-02-14T02:39:17.574Z,95.31
2019-02-14T02:40:17.640Z,95.21
2019-02-14T02:41:17.873Z,95.12
2019-02-14T02:42:17.927Z,94.93
2019-02-14T02:43:18.150Z,95.21
2019-02-14T02:44:18.202Z,95.59
2019-02-14T02:45:18.416Z,95.78
2019-02-14T02:46:18.593Z,95.59
2019-02-14T02:47:18.793Z,96.26
2019-02-14T02:48:19.007Z,95.97
2019-02-14T02:49:19.184Z,95.88
2019-02-14T02:50:19.303Z,96.16
2019-02-14T02:51:19.505Z,96.54
2019-02-14T02:52:19.696Z,96.26
2019-02-14T02:53:19.878Z,95.97
2019-02-14T02:54:20.080Z,95.78
2019-02-14T02:55:20.273Z,96.45
2019-02-14T02:56:20.474Z,96.45
2019-02-14T02:57:20.653Z,96.26
2019-02-14T02:58:20.888Z,96.16
2019-02-14T02:59:20.979Z,96.16
2019-02-14T03:00:21.167Z,95.88
2019-02-14T03:01:21.341Z,95.97
2019-02-14T03:02:21.627Z,95.78
2019-02-14T03:03:21.751Z,95.40
2019-02-14T03:04:21.935Z,95.21
2019-02-14T03:05:22.135Z,95.59
2019-02-14T03:06:22.435Z,95.21
2019-02-14T03:07:22.503Z,95.12
2019-02-14T03:08:22.713Z,95.59
2019-02-14T03:09:22.888Z,95.12
2019-02-14T03:10:23.095Z,95.12
2019-02-14T03:11:23.282Z,94.65
2019-02-14T03:12:23.485Z,94.56
2019-02-14T03:13:23.669Z,95.03
2019-02-14T03:14:23.880Z,94.65
2019-02-14T03:15:24.108Z,94.56
2019-02-14T03:16:24.179Z,94.74
2019-02-14T03:17:24.416Z,94.93
2019-02-14T03:18:24.478Z,95.31
2019-02-14T03:19:24.683Z,95.31
2019-02-14T03:20:24.867Z,94.84
2019-02-14T03:21:25.080Z,94.65
2019-02-14T03:22:25.275Z,94.74
2019-02-14T03:23:25.473Z,94.93
2019-02-14T03:24:25.658Z,95.03
2019-02-14T03:25:25.882Z,94.74
2019-02-14T03:26:26.078Z,94.46
2019-02-14T03:27:26.270Z,94.46
2019-02-14T03:28:26.459Z,94.93
2019-02-14T03:29:26.650Z,95.31
2019-02-14T03:30:26.842Z,95.12
2019-02-14T03:31:27.024Z,95.31
2019-02-14T03:32:27.220Z,95.12
2019-02-14T03:33:27.419Z,95.12
2019-02-14T03:34:27.604Z,94.74
2019-02-14T03:35:27.817Z,94.56
2019-02-14T03:36:28.013Z,94.84
2019-02-14T03:37:28.209Z,94.56
2019-02-14T03:38:28.394Z,94.37
2019-02-14T03:39:28.625Z,94.46
2019-02-14T03:40:28.676Z,94.65
2019-02-14T03:41:28.852Z,94.56
2019-02-14T03:42:29.081Z,94.65
2019-02-14T03:43:29.199Z,94.27
2019-02-14T03:44:29.377Z,94.37
2019-02-14T03:45:29.577Z,94.65
2019-02-14T03:46:29.767Z,94.37
2019-02-14T03:47:29.975Z,94.56
2019-02-14T03:48:30.068Z,94.37
2019-02-14T03:49:30.327Z,94.46
2019-02-14T03:50:30.401Z,94.46
2019-02-14T03:51:30.602Z,94.37
2019-02-14T03:52:30.799Z,94.56
2019-02-14T03:53:30.993Z,94.56
2019-02-14T03:54:31.236Z,94.56
2019-02-14T03:55:31.332Z,94.46
2019-02-14T03:56:31.524Z,94.46
2019-02-14T03:57:31.742Z,94.56
2019-02-14T03:58:31.937Z,94.46
2019-02-14T03:59:32.126Z,94.74
2019-02-14T04:00:32.361Z,94.56
2019-02-14T04:01:32.550Z,93.99
2019-02-14T04:02:32.748Z,94.74
2019-02-14T04:03:32.984Z,95.03
2019-02-14T04:04:33.193Z,94.46
2019-02-14T04:05:33.402Z,94.46
2019-02-14T04:06:33.615Z,94.56
2019-02-14T04:07:33.796Z,94.18
2019-02-14T04:08:34.007Z,94.18
2019-02-14T04:09:34.200Z,94.27
2019-02-14T04:10:34.391Z,94.18
2019-02-14T04:11:34.592Z,94.37
2019-02-14T04:12:34.794Z,94.27
2019-02-14T04:13:35.005Z,94.56
2019-02-14T04:14:35.200Z,94.46
2019-02-14T04:15:35.375Z,94.56
2019-02-14T04:16:35.585Z,94.74
2019-02-14T04:17:35.764Z,94.65
2019-02-14T04:18:35.947Z,94.74
2019-02-14T04:19:36.157Z,95.31
2019-02-14T04:20:36.388Z,95.50
2019-02-14T04:21:36.449Z,95.31
2019-02-14T04:22:36.639Z,95.12
2019-02-14T04:23:36.822Z,95.12
2019-02-14T04:24:37.019Z,95.21
2019-02-14T04:25:38.270Z,95.69
2019-02-14T04:26:37.421Z,95.31
2019-02-14T04:27:37.510Z,94.46
2019-02-14T04:28:37.722Z,94.65
2019-02-14T04:29:37.938Z,94.74
2019-02-14T04:30:38.015Z,94.65
2019-02-14T04:31:38.197Z,94.74
2019-02-14T04:32:38.402Z,94.84
2019-02-14T04:33:38.601Z,94.27
2019-02-14T04:34:38.807Z,94.27
2019-02-14T04:35:39.007Z,94.46
2019-02-14T04:36:39.199Z,94.27
2019-02-14T04:37:39.387Z,94.27
2019-02-14T04:38:39.527Z,94.56
2019-02-14T04:39:39.764Z,94.56
2019-02-14T04:40:39.823Z,95.03
2019-02-14T04:41:40.024Z,94.74
2019-02-14T04:42:40.214Z,94.46
2019-02-14T04:43:40.410Z,94.56
2019-02-14T04:44:40.612Z,94.65
2019-02-14T04:45:40.816Z,94.56
2019-02-14T04:46:40.993Z,94.93
2019-02-14T04:47:43.641Z,94.56
2019-02-14T04:48:41.335Z,95.31
2019-02-14T04:49:42.021Z,95.50
2019-02-14T04:50:41.755Z,95.50
2019-02-14T04:51:41.815Z,95.40
2019-02-14T04:52:42.018Z,95.50
2019-02-14T04:53:42.198Z,95.31
2019-02-14T04:54:42.388Z,95.50
2019-02-14T04:55:42.601Z,95.12
2019-02-14T04:56:42.818Z,95.31
2019-02-14T04:57:42.925Z,95.12
2019-02-14T04:58:43.011Z,95.21
2019-02-14T04:59:43.193Z,95.21
2019-02-14T05:00:43.415Z,95.59
2019-02-14T05:01:43.614Z,95.31
2019-02-14T05:02:43.790Z,94.84
2019-02-14T05:03:44.005Z,95.31
2019-02-14T05:04:44.064Z,95.31
2019-02-14T05:05:44.263Z,94.74
2019-02-14T05:06:44.597Z,94.74
2019-02-14T05:07:44.645Z,94.56
2019-02-14T05:08:44.858Z,94.46
2019-02-14T05:09:45.056Z,94.74
2019-02-14T05:10:45.295Z,94.93
2019-02-14T05:11:45.363Z,94.46
2019-02-14T05:12:45.549Z,94.65
2019-02-14T05:13:45.766Z,93.99
2019-02-14T05:14:45.835Z,94.46
2019-02-14T05:15:46.021Z,94.27
2019-02-14T05:16:46.227Z,94.84
2019-02-14T05:17:46.369Z,94.56
2019-02-14T05:18:46.549Z,94.27
2019-02-14T05:19:46.817Z,93.99
2019-02-14T05:20:47.858Z,94.93
2019-02-14T05:21:47.115Z,95.03
2019-02-14T05:22:47.250Z,94.46
2019-02-14T05:23:47.303Z,94.84
2019-02-14T05:24:47.870Z,94.74
2019-02-14T05:25:47.742Z,94.65
2019-02-14T05:26:48.033Z,94.65
2019-02-14T05:27:48.228Z,94.74
2019-02-14T05:28:48.314Z,94.93
2019-02-14T05:29:48.436Z,94.18
2019-02-14T05:30:48.561Z,94.27
2019-02-14T05:31:48.586Z,94.13
2019-02-14T05:32:48.837Z,94.74
2019-02-14T05:33:49.140Z,95.07
2019-02-14T05:34:49.289Z,95.45
2019-02-14T05:35:49.436Z,95.36
2019-02-14T05:36:52.834Z,95.64
2019-02-14T05:37:49.676Z,95.64
2019-02-14T05:38:49.874Z,95.64
2019-02-14T05:39:50.085Z,95.97
2019-02-14T05:40:50.291Z,95.59
2019-02-14T05:41:50.539Z,95.31
2019-02-14T05:42:53.224Z,95.26
2019-02-14T05:43:52.384Z,95.50
2019-02-14T05:44:51.025Z,95.21
2019-02-14T05:45:51.213Z,95.59
2019-02-14T05:46:51.423Z,95.21
2019-02-14T05:47:51.651Z,95.78
2019-02-14T05:48:51.923Z,95.78
2019-02-14T05:49:51.985Z,95.88
2019-02-14T05:50:52.198Z,95.59
2019-02-14T05:51:52.409Z,95.50
2019-02-14T05:52:52.593Z,95.12
2019-02-14T05:53:52.774Z,95.21
2019-02-14T05:54:53.001Z,95.21
2019-02-14T05:55:53.171Z,95.03
2019-02-14T05:56:53.401Z,94.37
2019-02-14T05:57:53.683Z,94.37
2019-02-14T05:58:53.739Z,94.56
2019-02-14T05:59:53.874Z,95.03
2019-02-14T06:00:53.964Z,94.93
2019-02-14T06:01:54.947Z,94.56
2019-02-14T06:02:54.380Z,94.27
2019-02-14T06:03:54.438Z,94.27
2019-02-14T06:04:54.631Z,94.84
2019-02-14T06:05:54.807Z,94.84
2019-02-14T06:07:00.989Z,94.46
2019-02-14T06:07:55.239Z,94.46
2019-02-14T06:08:55.318Z,94.65
2019-02-14T06:09:55.517Z,94.65
2019-02-14T06:10:55.694Z,95.03
2019-02-14T06:11:55.920Z,94.93
2019-02-14T06:12:56.129Z,94.84
2019-02-14T06:13:56.344Z,94.46
2019-02-14T06:14:56.418Z,94.56
2019-02-14T06:15:59.237Z,94.18
2019-02-14T06:17:00.486Z,94.18
2019-02-14T06:17:57.841Z,94.56
2019-02-14T06:18:59.056Z,94.46
2019-02-14T06:19:58.258Z,94.37
2019-02-14T06:20:58.369Z,94.56
2019-02-14T06:22:00.230Z,94.27
2019-02-14T06:22:59.465Z,94.37
2019-02-14T06:23:59.035Z,94.56
2019-02-14T06:24:59.092Z,95.03
2019-02-14T06:26:00.188Z,94.74
2019-02-14T06:26:59.754Z,94.37
2019-02-14T06:27:58.464Z,94.37
2019-02-14T06:28:58.511Z,94.56
2019-02-14T06:29:58.707Z,94.74
2019-02-14T06:30:58.921Z,94.46
2019-02-14T06:31:59.799Z,94.93
2019-02-14T06:33:02.086Z,94.56
2019-02-14T06:33:59.491Z,95.03
2019-02-14T06:34:59.617Z,94.65
2019-02-14T06:35:59.814Z,94.65
2019-02-14T06:37:00.008Z,94.65
2019-02-14T06:38:00.251Z,94.46
2019-02-14T06:39:00.399Z,94.74
2019-02-14T06:40:00.724Z,94.93
2019-02-14T06:41:00.665Z,94.65
2019-02-14T06:42:00.760Z,95.50
2019-02-14T06:43:00.960Z,95.31
2019-02-14T06:44:01.153Z,95.31
2019-02-14T06:45:01.361Z,95.12
2019-02-14T06:46:02.127Z,95.31
2019-02-14T06:47:01.693Z,94.70
2019-02-14T06:48:01.899Z,94.74
2019-02-14T06:49:02.091Z,94.65
2019-02-14T06:50:02.273Z,94.27
2019-02-14T06:51:03.747Z,94.46
2019-02-14T06:52:05.686Z,94.18
2019-02-14T06:53:02.863Z,95.21
2019-02-14T06:54:03.063Z,94.46
2019-02-14T06:55:03.250Z,94.27
2019-02-14T06:56:03.429Z,94.46
2019-02-14T06:57:03.636Z,94.46
2019-02-14T06:58:03.812Z,94.46
2019-02-14T06:59:04.009Z,95.21
2019-02-14T07:00:04.238Z,94.84
2019-02-14T07:01:04.311Z,94.74
2019-02-14T07:02:04.528Z,95.31
2019-02-14T07:03:04.713Z,95.12
2019-02-14T07:04:06.312Z,94.65
2019-02-14T07:05:05.031Z,94.84
2019-02-14T07:06:05.234Z,94.93
2019-02-14T07:07:05.472Z,94.56
2019-02-14T07:08:05.530Z,94.23
2019-02-14T07:09:05.737Z,94.46
2019-02-14T07:10:05.946Z,94.89
2019-02-14T07:11:06.140Z,94.65
2019-02-14T07:12:07.771Z,94.65
2019-02-14T07:13:06.536Z,94.56
2019-02-14T07:14:06.621Z,94.37
2019-02-14T07:15:06.877Z,94.74
2019-02-14T07:16:06.982Z,94.56
2019-02-14T07:17:07.041Z,94.46
2019-02-14T07:18:07.256Z,94.65
2019-02-14T07:19:07.451Z,94.56
2019-02-14T07:20:07.684Z,94.74
2019-02-14T07:21:07.878Z,94.56
2019-02-14T07:22:08.069Z,93.99
2019-02-14T07:23:08.293Z,94.18
2019-02-14T07:24:08.378Z,94.27
2019-02-14T07:25:08.565Z,94.37
2019-02-14T07:26:08.750Z,94.08
2019-02-14T07:27:09.049Z,93.61
2019-02-14T07:28:09.203Z,93.70
2019-02-14T07:29:09.411Z,93.42
2019-02-14T07:30:09.510Z,93.42
2019-02-14T07:31:09.636Z,93.80
2019-02-14T07:32:09.725Z,93.04
2019-02-14T07:33:09.914Z,93.61
2019-02-14T07:34:10.115Z,93.61
2019-02-14T07:35:10.410Z,93.32
2019-02-14T07:36:10.517Z,93.23
2019-02-14T07:37:10.708Z,93.56
2019-02-14T07:38:10.901Z,92.90
2019-02-14T07:39:11.188Z,92.80
2019-02-14T07:40:11.194Z,92.43
2019-02-14T07:41:11.379Z,92.43
2019-02-14T07:42:11.623Z,92.24
2019-02-14T07:43:11.707Z,92.52
2019-02-14T07:44:11.886Z,92.24
2019-02-14T07:45:12.068Z,91.76
2019-02-14T07:46:12.288Z,91.95
2019-02-14T07:47:12.390Z,91.05
2019-02-14T07:48:12.510Z,90.29
2019-02-14T07:49:12.935Z,90.39
2019-02-14T07:50:13.179Z,89.91
2019-02-14T07:51:14.432Z,90.29
2019-02-14T07:52:13.162Z,89.44
2019-02-14T07:53:13.453Z,88.78
2019-02-14T07:54:13.889Z,88.40
2019-02-14T07:55:13.649Z,88.11
2019-02-14T07:56:14.012Z,88.02
2019-02-14T07:57:13.872Z,87.87
2019-02-14T07:58:14.929Z,87.97
2019-02-14T07:59:15.348Z,87.49
2019-02-14T08:00:14.505Z,87.97
2019-02-14T08:01:15.144Z,87.35
2019-02-14T08:02:15.906Z,87.21
2019-02-14T08:03:15.269Z,86.87
2019-02-14T08:04:15.538Z,85.68
2019-02-14T08:05:15.238Z,83.64
2019-02-14T08:06:16.304Z,80.49
2019-02-14T08:07:15.763Z,76.29
2019-02-14T08:08:16.043Z,73.15
2019-02-14T08:09:17.063Z,72.05
2019-02-14T08:10:15.998Z,69.79
2019-02-14T08:11:17.614Z,67.29
2019-02-14T08:12:17.272Z,65.42
2019-02-14T08:13:16.920Z,63.29
2019-02-14T08:14:16.773Z,61.57
2019-02-14T08:15:17.142Z,60.55
2019-02-14T08:16:17.266Z,61.41
2019-02-14T08:17:17.278Z,61.32
2019-02-14T08:18:17.736Z,62.21
2019-02-14T08:19:17.522Z,63.45
2019-02-14T08:20:17.817Z,64.28
2019-02-14T08:21:17.985Z,66.30
2019-02-14T08:22:18.189Z,67.98
2019-02-14T08:23:18.137Z,70.36
2019-02-14T08:24:18.106Z,71.66
2019-02-14T08:25:18.406Z,72.75
2019-02-14T08:26:18.464Z,73.99
2019-02-14T08:27:18.712Z,75.19
2019-02-14T08:28:18.812Z,76.14
2019-02-14T08:29:19.291Z,77.28
2019-02-14T08:30:19.114Z,77.90
2019-02-14T08:31:20.422Z,78.95
2019-02-14T08:32:19.413Z,78.95
2019-02-14T08:33:19.638Z,79.71
2019-02-14T08:34:19.889Z,80.08
2019-02-14T08:35:21.667Z,81.23
2019-02-14T08:36:19.938Z,81.37
2019-02-14T08:37:20.372Z,81.37
2019-02-14T08:38:20.450Z,81.23
2019-02-14T08:39:20.720Z,81.75
2019-02-14T08:40:20.477Z,82.46
2019-02-14T08:41:20.735Z,82.27
2019-02-14T08:42:20.825Z,82.08
2019-02-14T08:43:20.941Z,82.27
2019-02-14T08:44:21.215Z,81.65
2019-02-14T08:45:21.597Z,81.32
2019-02-14T08:46:21.714Z,80.79
2019-02-14T08:47:21.749Z,80.69
2019-02-14T08:48:21.814Z,79.84
2019-02-14T08:49:22.216Z,80.13
2019-02-14T08:50:22.153Z,80.03
2019-02-14T08:51:23.887Z,79.52
2019-02-14T08:52:22.868Z,80.08
2019-02-14T08:53:22.983Z,79.90
2019-02-14T08:54:23.008Z,80.37
2019-02-14T08:55:23.422Z,81.41
2019-02-14T08:56:24.259Z,81.70
2019-02-14T08:57:23.876Z,82.17
2019-02-14T08:58:23.563Z,81.41
2019-02-14T08:59:23.619Z,81.41
2019-02-14T09:00:24.513Z,81.41
2019-02-14T09:01:24.061Z,81.70
2019-02-14T09:02:24.320Z,81.41
2019-02-14T09:03:24.357Z,81.60
2019-02-14T09:04:24.586Z,81.98
2019-02-14T09:05:24.739Z,82.27
2019-02-14T09:06:24.835Z,82.36
2019-02-14T09:07:25.146Z,82.12
2019-02-14T09:08:26.393Z,80.69
2019-02-14T09:09:25.499Z,80.41
2019-02-14T09:10:25.670Z,79.60
2019-02-14T09:11:25.808Z,78.83
2019-02-14T09:12:26.040Z,78.17
2019-02-14T09:13:29.951Z,78.36
2019-02-14T09:14:26.133Z,77.79
2019-02-14T09:15:26.296Z,77.60
2019-02-14T09:16:26.400Z,77.70
2019-02-14T09:17:26.511Z,77.60
2019-02-14T09:18:29.958Z,77.12
2019-02-14T09:19:27.002Z,77.51
2019-02-14T09:20:26.946Z,77.79
2019-02-14T09:21:27.264Z,77.70
2019-02-14T09:22:27.421Z,78.17
2019-02-14T09:23:27.516Z,78.55
2019-02-14T09:24:27.829Z,78.32
2019-02-14T09:25:27.888Z,79.17
2019-02-14T09:26:28.137Z,78.80
2019-02-14T09:27:28.237Z,79.74
2019-02-14T09:28:28.680Z,79.88
2019-02-14T09:29:28.618Z,79.27
2019-02-14T09:30:28.736Z,78.80
2019-02-14T09:31:29.096Z,78.80
2019-02-14T09:32:28.891Z,78.89
2019-02-14T09:33:29.101Z,78.80
2019-02-14T09:34:29.557Z,79.36
2019-02-14T09:35:29.705Z,79.46
2019-02-14T09:36:29.796Z,79.17
2019-02-14T09:37:29.925Z,79.08
2019-02-14T09:38:30.911Z,78.61
2019-02-14T09:39:30.121Z,79.27
2019-02-14T09:40:30.330Z,79.46
2019-02-14T09:41:30.569Z,79.08
2019-02-14T09:42:30.870Z,79.08
2019-02-14T09:43:30.897Z,79.17
2019-02-14T09:44:31.097Z,79.55
2019-02-14T09:45:31.159Z,79.17
2019-02-14T09:46:31.378Z,79.12
2019-02-14T09:47:34.293Z,79.50
2019-02-14T09:48:31.621Z,78.83
2019-02-14T09:49:31.948Z,79.03
2019-02-14T09:50:31.865Z,78.11
2019-02-14T09:57:52.452Z,75.74
2019-02-14T09:58:52.395Z,75.84
2019-02-14T09:59:49.930Z,75.78
2019-02-14T10:00:57.715Z,75.59
2019-02-14T10:01:51.414Z,75.26
2019-02-14T10:02:52.907Z,75.17
2019-02-14T10:03:50.490Z,74.98
2019-02-14T10:04:50.367Z,75.36
2019-02-14T10:05:50.707Z,76.03
2019-02-14T10:06:50.765Z,75.79
2019-02-14T10:07:59.097Z,76.65
2019-02-14T10:08:53.876Z,76.46
2019-02-14T10:09:51.158Z,76.84
2019-02-14T10:11:24.522Z,76.84
2019-02-14T10:11:55.158Z,77.51
2019-02-14T10:12:51.625Z,77.31
2019-02-14T10:13:58.890Z,77.22
2019-02-14T10:14:53.413Z,77.70
2019-02-14T10:15:56.274Z,78.17
2019-02-14T10:17:08.259Z,77.89
2019-02-14T10:18:21.576Z,77.31
2019-02-14T10:19:03.383Z,76.97
2019-02-14T10:19:53.105Z,76.69
2019-02-14T10:20:53.139Z,76.59
2019-02-14T10:21:53.301Z,75.84
2019-02-14T10:22:53.467Z,76.78
2019-02-14T10:23:53.653Z,76.78
2019-02-14T10:24:53.974Z,75.96
2019-02-14T10:25:54.057Z,75.96
2019-02-14T10:26:54.158Z,75.68
2019-02-14T10:27:56.393Z,75.96
2019-02-14T10:28:54.617Z,75.91
2019-02-14T10:29:54.634Z,75.91
2019-02-14T10:30:54.808Z,74.71
2019-02-14T10:31:54.920Z,73.57
2019-02-14T10:32:55.190Z,73.19
2019-02-14T10:33:56.772Z,72.52
2019-02-14T10:34:55.997Z,71.86
2019-02-14T10:35:58.386Z,71.57
2019-02-14T10:36:58.698Z,71.76
2019-02-14T10:37:59.744Z,71.57
2019-02-14T10:38:56.380Z,71.57
2019-02-14T10:39:58.167Z,71.57
2019-02-14T10:40:56.408Z,71.57
2019-02-14T10:41:56.575Z,71.38
2019-02-14T10:42:56.711Z,71.38
2019-02-14T10:43:56.785Z,71.28
2019-02-14T10:44:57.025Z,71.19
2019-02-14T10:45:57.395Z,71.95
2019-02-14T10:46:59.268Z,71.76
2019-02-14T10:47:59.063Z,72.30
2019-02-14T10:48:57.857Z,72.24
2019-02-14T10:49:59.765Z,72.24
2019-02-14T10:50:59.832Z,72.05
2019-02-14T10:51:58.298Z,71.86
2019-02-14T10:52:58.368Z,72.24
2019-02-14T10:53:58.804Z,72.14
2019-02-14T10:54:58.785Z,72.14
2019-02-14T10:55:59.020Z,72.05
2019-02-14T10:56:59.142Z,71.86
2019-02-14T10:57:59.229Z,72.52
2019-02-14T10:59:01.574Z,72.33
2019-02-14T10:59:59.512Z,71.95
2019-02-14T11:00:59.665Z,72.24
2019-02-14T11:01:59.874Z,72.71
2019-02-14T11:02:59.930Z,72.62
2019-02-14T11:04:01.163Z,73.28
2019-02-14T11:05:00.265Z,72.86
2019-02-14T11:06:00.391Z,72.86
2019-02-14T11:07:00.506Z,72.58
2019-02-14T11:08:00.681Z,72.58
2019-02-14T11:09:00.770Z,72.49
2019-02-14T11:14:38.555Z,72.96
2019-02-14T11:15:38.783Z,73.06
2019-02-14T11:16:38.958Z,72.77
2019-02-14T11:17:39.226Z,72.49
2019-02-14T11:18:44.238Z,72.49
2019-02-14T11:19:39.735Z,72.24
2019-02-14T11:20:39.698Z,72.42
2019-02-14T11:21:39.929Z,72.24
2019-02-14T11:22:40.160Z,72.05
2019-02-14T11:23:40.280Z,72.14
2019-02-14T11:24:40.364Z,71.57
2019-02-14T11:25:40.592Z,71.38
2019-02-14T11:26:40.677Z,71.61
2019-02-14T11:27:40.797Z,70.97
2019-02-14T11:28:41.050Z,70.12
2019-02-14T11:29:41.129Z,68.63
2019-02-14T11:30:41.329Z,67.86
2019-02-14T11:31:41.523Z,66.38
2019-02-14T11:32:41.642Z,65.61
2019-02-14T11:33:41.766Z,65.52
2019-02-14T11:34:41.857Z,65.80
2019-02-14T11:35:42.547Z,66.09
2019-02-14T11:36:42.292Z,65.89
2019-02-14T11:37:42.405Z,65.70
2019-02-14T11:38:42.532Z,64.47
2019-02-14T11:39:42.628Z,63.89
2019-02-14T11:40:42.818Z,63.80
2019-02-14T11:41:43.172Z,63.32
2019-02-14T11:42:43.244Z,63.16
2019-02-14T11:43:43.459Z,62.94
2019-02-14T11:44:43.600Z,60.96
2019-02-14T11:45:43.724Z,59.08
2019-02-14T11:46:51.277Z,58.25
2019-02-14T11:47:45.785Z,57.51
2019-02-14T11:48:44.558Z,57.26
2019-02-14T11:49:45.278Z,55.94
2019-02-14T11:50:47.376Z,55.27
2019-02-14T11:51:46.066Z,54.63
2019-02-14T11:52:46.985Z,53.99
2019-02-14T11:53:46.536Z,52.83
2019-02-14T11:54:46.656Z,53.03
2019-02-14T11:55:45.722Z,52.19
2019-02-14T11:56:45.406Z,50.96
2019-02-14T11:57:46.319Z,51.10
2019-02-14T11:58:46.226Z,52.36
2019-02-14T11:59:45.926Z,52.74
2019-02-14T12:00:46.032Z,52.00
2019-02-14T12:01:55.007Z,51.06
2019-02-14T12:02:54.751Z,50.96
2019-02-14T12:03:46.759Z,50.39
2019-02-14T12:04:47.098Z,51.45
2019-02-14T12:05:47.170Z,51.71
2019-02-14T12:06:47.332Z,52.09
2019-02-14T12:07:47.386Z,52.38
2019-02-14T12:08:59.398Z,52.31
2019-02-14T12:09:47.671Z,51.64
2019-02-14T12:10:48.155Z,51.35
2019-02-14T12:11:48.071Z,51.51
2019-02-14T12:12:48.247Z,51.95
2019-02-14T12:13:48.293Z,53.83
2019-02-14T12:14:48.461Z,54.22
2019-02-14T12:15:48.683Z,54.50
2019-02-14T12:16:48.884Z,54.41
2019-02-14T12:17:49.064Z,54.70
2019-02-14T12:18:49.228Z,53.86
2019-02-14T12:19:49.419Z,53.86
2019-02-14T12:20:49.642Z,53.12
2019-02-14T12:21:50.074Z,53.28
2019-02-14T12:22:50.271Z,53.00
2019-02-14T12:23:50.356Z,53.83
2019-02-14T12:24:50.501Z,54.41
2019-02-14T12:25:50.412Z,55.44
2019-02-14T12:26:50.635Z,55.75
2019-02-14T12:27:51.511Z,55.08
2019-02-14T12:28:50.914Z,54.44
2019-02-14T12:29:51.474Z,53.22
2019-02-14T12:30:51.418Z,52.55
2019-02-14T12:31:51.510Z,52.36
2019-02-14T12:32:51.674Z,52.16
2019-02-14T12:33:51.849Z,52.36
2019-02-14T12:34:52.046Z,52.45
2019-02-14T12:35:52.205Z,52.86
2019-02-14T12:36:52.365Z,52.45
2019-02-14T12:37:52.750Z,53.00
2019-02-14T12:38:52.767Z,52.71
2019-02-14T12:39:52.839Z,52.40
2019-02-14T12:40:53.015Z,52.95
2019-02-14T12:41:53.209Z,54.16
2019-02-14T12:42:53.364Z,54.48
2019-02-14T12:43:53.558Z,54.48
2019-02-14T12:44:55.596Z,54.48
2019-02-14T12:45:53.887Z,54.48
2019-02-14T12:46:57.608Z,53.91
2019-02-14T12:54:31.780Z,50.89
2019-02-14T12:55:05.260Z,51.28
2019-02-14T12:56:05.373Z,51.56
2019-02-14T12:57:05.896Z,51.56
2019-02-14T12:58:07.619Z,51.63
2019-02-14T12:59:05.819Z,51.63
2019-02-14T13:00:06.057Z,51.82
2019-02-14T13:01:06.139Z,51.44
2019-02-14T13:02:06.373Z,51.06
2019-02-14T13:03:06.541Z,50.51
2019-02-14T13:04:06.914Z,50.89
2019-02-14T13:05:06.866Z,50.79
2019-02-14T13:06:07.341Z,50.89
2019-02-14T13:07:08.203Z,50.03
2019-02-14T13:08:15.316Z,50.12
2019-02-14T13:09:07.608Z,50.03
2019-02-14T13:10:08.596Z,50.87
2019-02-14T13:11:07.828Z,52.30
2019-02-14T13:12:08.067Z,52.95